createdAt,value
2023-01-07T00:00:39.218Z,100184.53
2023-01-07T00:05:41.275Z,100190.91
2023-01-07T00:10:43.104Z,100191.22
2023-01-07T00:15:44.998Z,100184.34
2023-01-07T00:20:46.928Z,100182.09
2023-01-07T00:25:48.947Z,100178.25
2023-01-07T00:30:50.818Z,100189.72
2023-01-07T00:36:01.761Z,100180.81
2023-01-07T00:41:03.851Z,100187.16
2023-01-07T00:46:09.061Z,100180.03
2023-01-07T00:51:14.576Z,100187.16
2023-01-07T00:56:16.862Z,100191.25
2023-01-07T01:01:18.878Z,100191.91
2023-01-07T01:06:20.877Z,100197.34
2023-01-07T01:11:22.717Z,100186.94
2023-01-07T01:16:24.680Z,100187.09
2023-01-07T01:21:26.617Z,100187.91
2023-01-07T01:26:28.476Z,100192.91
2023-01-07T01:31:30.286Z,100207.22
2023-01-07T01:36:32.165Z,100211.72
2023-01-07T01:41:34.145Z,100228.44
2023-01-07T01:46:40.263Z,100228.97
2023-01-07T01:51:42.454Z,100233.50
2023-01-07T01:56:45.272Z,100241.06
2023-01-07T02:01:47.204Z,100245.53
2023-01-07T02:07:14.075Z,100259.09
2023-01-07T02:12:39.118Z,100266.94
2023-01-07T02:17:43.996Z,100268.94
2023-01-07T02:23:00.829Z,100269.84
2023-01-07T02:28:16.207Z,100284.25
2023-01-07T02:33:38.737Z,100290.00
2023-01-07T02:39:07.706Z,100290.19
2023-01-07T02:44:30.373Z,100290.19
2023-01-07T02:49:32.243Z,100300.81
2023-01-07T02:54:34.095Z,100303.00
2023-01-07T03:00:03.041Z,100312.22
2023-01-07T03:05:13.302Z,100328.66
2023-01-07T03:10:25.638Z,100339.16
2023-01-07T03:15:50.308Z,100339.53
2023-01-07T03:20:55.054Z,100355.72
2023-01-07T03:26:01.248Z,100351.47
2023-01-07T03:31:03.087Z,100349.28
2023-01-07T03:36:05.127Z,100357.47
2023-01-07T03:41:07.033Z,100348.97
2023-01-07T03:46:08.942Z,100346.28
2023-01-07T03:51:10.924Z,100350.03
2023-01-07T03:56:12.857Z,100356.97
2023-01-07T04:01:14.852Z,100359.47
2023-01-07T04:06:16.827Z,100365.72
2023-01-07T04:11:18.693Z,100371.50
2023-01-07T04:16:20.791Z,100369.53
2023-01-07T04:21:22.713Z,100374.34
2023-01-07T04:26:24.620Z,100384.66
2023-01-07T04:31:26.694Z,100385.69
2023-01-07T04:36:29.049Z,100383.97
2023-01-07T04:41:30.870Z,100393.41
2023-01-07T04:46:32.862Z,100390.13
2023-01-07T04:51:34.912Z,100384.59
2023-01-07T04:56:36.805Z,100392.59
2023-01-07T05:01:38.791Z,100399.53
2023-01-07T05:06:40.714Z,100404.53
2023-01-07T05:11:42.746Z,100414.69
2023-01-07T05:16:44.643Z,100420.56
2023-01-07T05:21:46.531Z,100428.03
2023-01-07T05:26:48.387Z,100434.28
2023-01-07T05:31:50.422Z,100451.53
2023-01-07T05:36:52.305Z,100439.81
2023-01-07T05:41:54.193Z,100458.88
2023-01-07T05:46:56.091Z,100465.13
2023-01-07T05:51:58.047Z,100471.88
2023-01-07T05:57:00.039Z,100469.38
2023-01-07T06:02:02.266Z,100479.34
2023-01-07T06:07:04.185Z,100476.16
2023-01-07T06:12:06.280Z,100484.31
2023-01-07T06:17:08.192Z,100503.53
2023-01-07T06:22:10.139Z,100506.41
2023-01-07T06:27:12.213Z,100522.75
2023-01-07T06:32:14.157Z,100536.63
2023-01-07T06:37:16.105Z,100542.88
2023-01-07T06:42:17.924Z,100540.75
2023-01-07T06:47:19.883Z,100542.69
2023-01-07T06:52:21.763Z,100549.81
2023-01-07T06:57:23.676Z,100557.09
2023-01-07T07:02:26.701Z,100559.81
2023-01-07T07:07:28.731Z,100552.44
2023-01-07T07:12:30.663Z,100551.25
2023-01-07T07:17:32.574Z,100558.00
2023-01-07T07:22:34.464Z,100564.78
2023-01-07T07:27:36.312Z,100579.00
2023-01-07T07:32:38.219Z,100590.75
2023-01-07T07:37:40.153Z,100602.94
2023-01-07T07:43:10.284Z,100596.53
2023-01-07T07:48:06.029Z,100605.78
2023-01-07T07:53:08.222Z,100607.22
2023-01-07T07:58:10.249Z,100615.03
2023-01-07T08:03:12.354Z,100623.94
2023-01-07T08:08:14.440Z,100622.34
2023-01-07T08:13:16.538Z,100616.09
2023-01-07T08:18:18.536Z,100623.81
2023-01-07T08:23:20.565Z,100629.00
2023-01-07T08:28:22.501Z,100632.94
2023-01-07T08:33:24.408Z,100627.38
2023-01-07T08:38:26.384Z,100630.72
2023-01-07T08:43:28.363Z,100614.84
2023-01-07T08:48:30.265Z,100631.19
2023-01-07T08:53:32.341Z,100631.19
2023-01-07T08:58:34.526Z,100642.03
2023-01-07T09:03:36.439Z,100641.91
2023-01-07T09:08:38.374Z,100636.06
2023-01-07T09:13:40.241Z,100631.63
2023-01-07T09:18:42.074Z,100626.56
2023-01-07T09:23:43.959Z,100634.59
2023-01-07T09:28:46.054Z,100636.72
2023-01-07T09:33:48.064Z,100655.94
2023-01-07T09:38:49.934Z,100653.84
2023-01-07T09:44:00.306Z,100655.06
2023-01-07T09:49:03.755Z,100642.78
2023-01-07T09:54:06.265Z,100659.50
2023-01-07T09:59:10.823Z,100649.81
2023-01-07T10:04:31.098Z,100656.72
2023-01-07T10:09:53.832Z,100664.88
2023-01-07T10:15:01.582Z,100661.84
2023-01-07T10:20:15.252Z,100664.19
2023-01-07T10:25:20.619Z,100665.50
2023-01-07T10:30:24.379Z,100653.81
2023-01-07T10:35:26.243Z,100655.63
2023-01-07T10:40:31.027Z,100656.78
2023-01-07T10:45:44.822Z,100665.31
2023-01-07T10:51:04.504Z,100651.81
2023-01-07T10:56:38.171Z,100653.09
2023-01-07T11:01:40.616Z,100671.63
2023-01-07T11:07:20.868Z,100660.81
2023-01-07T11:12:39.735Z,100672.69
2023-01-07T11:17:46.207Z,100658.59
2023-01-07T11:22:48.019Z,100660.94
2023-01-07T11:27:49.938Z,100670.53
2023-01-07T11:33:00.765Z,100674.91
2023-01-07T11:38:02.572Z,100678.53
2023-01-07T11:43:15.730Z,100681.22
2023-01-07T11:48:26.561Z,100690.44
2023-01-07T11:53:36.237Z,100699.41
2023-01-07T11:58:48.582Z,100692.38
2023-01-07T12:03:53.512Z,100681.66
2023-01-07T12:09:15.475Z,100688.84
2023-01-07T12:14:23.543Z,100697.00
2023-01-07T12:19:32.266Z,100691.03
2023-01-07T12:24:52.535Z,100702.50
2023-01-07T12:30:20.831Z,100704.91
2023-01-07T12:35:28.018Z,100708.16
2023-01-07T12:40:41.063Z,100704.53
2023-01-07T12:45:56.185Z,100710.34
2023-01-07T12:50:58.219Z,100710.56
2023-01-07T12:56:39.517Z,100711.72
2023-01-07T13:01:57.666Z,100720.50
2023-01-07T13:07:10.077Z,100724.19
2023-01-07T13:12:40.629Z,100726.25
2023-01-07T13:17:36.607Z,100720.84
2023-01-07T13:22:42.712Z,100723.34
2023-01-07T13:27:59.584Z,100735.66
2023-01-07T13:33:24.801Z,100736.38
2023-01-07T13:38:41.853Z,100732.31
2023-01-07T13:44:03.520Z,100749.69
2023-01-07T13:49:05.369Z,100749.50
2023-01-07T13:54:11.608Z,100745.06
2023-01-07T13:59:30.734Z,100744.00
2023-01-07T14:04:59.138Z,100738.75
2023-01-07T14:10:00.961Z,100747.91
2023-01-07T14:15:17.031Z,100760.75
2023-01-07T14:20:38.994Z,100752.50
2023-01-07T14:25:59.410Z,100760.09
2023-01-07T14:31:01.211Z,100764.16
2023-01-07T14:36:07.799Z,100764.19
2023-01-07T14:41:14.431Z,100764.19
2023-01-07T14:46:25.185Z,100762.75
2023-01-07T14:51:35.518Z,100769.22
2023-01-07T14:56:50.472Z,100763.31
2023-01-07T15:02:13.392Z,100775.41
2023-01-07T15:07:23.538Z,100776.28
2023-01-07T15:12:27.826Z,100778.06
2023-01-07T15:17:29.667Z,100785.44
2023-01-07T15:22:46.609Z,100780.31
2023-01-07T15:27:51.199Z,100780.50
2023-01-07T15:33:20.711Z,100785.25
2023-01-07T15:38:37.681Z,100777.47
2023-01-07T15:43:39.659Z,100778.13
2023-01-07T15:48:41.566Z,100782.94
2023-01-07T15:53:45.029Z,100766.50
2023-01-07T15:58:46.936Z,100762.19
2023-01-07T16:03:50.117Z,100765.94
2023-01-07T16:08:52.079Z,100769.88
2023-01-07T16:14:01.895Z,100763.44
2023-01-07T16:19:03.887Z,100773.47
2023-01-07T16:24:07.527Z,100784.31
2023-01-07T16:29:11.593Z,100773.56
2023-01-07T16:34:25.539Z,100789.50
2023-01-07T16:39:31.635Z,100783.03
2023-01-07T16:44:42.610Z,100785.69
2023-01-07T16:49:45.618Z,100781.53
2023-01-07T16:54:50.926Z,100782.59
2023-01-07T16:59:54.188Z,100791.00
2023-01-07T17:05:10.632Z,100800.66
2023-01-07T17:10:40.339Z,100808.22
2023-01-07T17:15:43.491Z,100799.59
2023-01-07T17:20:49.267Z,100799.44
2023-01-07T17:26:06.016Z,100806.78
2023-01-07T17:31:08.763Z,100798.19
2023-01-07T17:36:18.448Z,100807.69
2023-01-07T17:41:22.187Z,100787.63
2023-01-07T17:46:24.386Z,100790.28
2023-01-07T17:51:27.220Z,100797.97
2023-01-07T17:56:28.979Z,100787.88
2023-01-07T18:01:30.866Z,100806.31
2023-01-07T18:06:32.756Z,100813.25
2023-01-07T18:11:39.679Z,100800.97
2023-01-07T18:16:41.769Z,100804.56
2023-01-07T18:21:43.641Z,100794.22
2023-01-07T18:26:45.753Z,100806.28
2023-01-07T18:31:47.699Z,100800.69
2023-01-07T18:36:49.561Z,100796.34
2023-01-07T18:41:51.504Z,100785.19
2023-01-07T18:46:53.374Z,100787.19
2023-01-07T18:51:55.867Z,100791.16
2023-01-07T18:56:57.729Z,100785.47
2023-01-07T19:01:59.944Z,100789.28
2023-01-07T19:07:03.571Z,100787.97
2023-01-07T19:12:06.246Z,100781.16
2023-01-07T19:17:08.240Z,100793.22
2023-01-07T19:22:10.627Z,100795.97
2023-01-07T19:27:12.519Z,100799.91
2023-01-07T19:32:14.380Z,100803.78
2023-01-07T19:37:16.267Z,100799.31
2023-01-07T19:42:18.289Z,100790.31
2023-01-07T19:47:20.161Z,100803.22
2023-01-07T19:52:22.052Z,100812.25
2023-01-07T19:57:23.906Z,100800.13
2023-01-07T20:02:25.989Z,100811.94
2023-01-07T20:07:28.038Z,100807.00
2023-01-07T20:12:29.917Z,100808.53
2023-01-07T20:17:31.753Z,100807.25
2023-01-07T20:22:34.206Z,100817.19
2023-01-07T20:27:36.194Z,100818.41
2023-01-07T20:32:38.079Z,100818.78
2023-01-07T20:37:40.149Z,100824.81
2023-01-07T20:42:42.174Z,100828.13
2023-01-07T20:47:43.999Z,100827.91
2023-01-07T20:52:45.838Z,100824.81
2023-01-07T20:57:47.703Z,100816.88
2023-01-07T21:02:49.645Z,100810.72
2023-01-07T21:07:51.781Z,100805.78
2023-01-07T21:12:53.747Z,100798.56
2023-01-07T21:17:55.660Z,100799.47
2023-01-07T21:22:57.501Z,100794.69
2023-01-07T21:27:59.363Z,100798.25
2023-01-07T21:33:01.244Z,100800.13
2023-01-07T21:38:03.175Z,100794.03
2023-01-07T21:43:05.051Z,100788.19
2023-01-07T21:48:06.900Z,100788.28
2023-01-07T21:53:08.776Z,100795.59
2023-01-07T21:58:10.619Z,100790.88
2023-01-07T22:03:12.418Z,100791.19
2023-01-07T22:08:14.332Z,100785.63
2023-01-07T22:13:16.172Z,100783.31
2023-01-07T22:18:18.051Z,100782.91
2023-01-07T22:23:20.025Z,100783.38
2023-01-07T22:28:22.286Z,100772.78
2023-01-07T22:33:24.146Z,100782.06
2023-01-07T22:38:26.095Z,100773.22
2023-01-07T22:43:27.991Z,100786.16
2023-01-07T22:48:32.269Z,100784.16
2023-01-07T22:53:34.168Z,100784.50
2023-01-07T22:58:36.197Z,100786.34
2023-01-07T23:03:38.272Z,100787.38
2023-01-07T23:08:40.485Z,100799.69
2023-01-07T23:13:42.339Z,100799.75
2023-01-07T23:18:44.271Z,100791.44
2023-01-07T23:23:46.130Z,100784.72
2023-01-07T23:28:47.975Z,100780.00
2023-01-07T23:33:49.828Z,100782.28
2023-01-07T23:38:52.054Z,100787.38
2023-01-07T23:43:54.042Z,100782.34
2023-01-07T23:48:55.914Z,100791.38
2023-01-07T23:53:57.807Z,100797.31
2023-01-07T23:59:02.141Z,100792.25
